Mont Saint Michel — FNMT — position and weather

sailwx.info

Track history (hours):
 
Tides and Currents Weather Stations Pressure Air Temp Water Temp Dewpoint Dewpoint Depression Visibility Wind Speed Wind Dir Waves Ship Positions

Mont Saint Michel

Last reported at 2016-Apr-29 21:34 UTC. Time now 2016-Apr-29 21:38 UTC.
Position N 50°49' W 001°06'.

Length 173 m; beam 29 m.

Type: Ship. MMSI: 227023100.

Date/timePositionNaut miles runAvg speedWind from/ knotsBaromVisibWave heightAir tempDewpointWater temp
2016-Apr-29 21:34N 50°49' W 001°06'0 0.0
2016-Apr-29 20:33N 50°49' W 001°06'5 5.0
2016-Apr-29 19:33N 50°44' W 001°03'3718.7
2016-Apr-29 17:33N 50°09' W 000°41'1919.4
2016-Apr-29 16:33N 49°51' W 000°30'1919.2
2016-Apr-29 15:33N 49°33' W 000°21'1616.0
2016-Apr-29 14:33N 49°17' W 000°15'0 0.0
2016-Apr-29 13:34N 49°17' W 000°15'2 1.6
2016-Apr-29 12:33N 49°19' W 000°15'1817.9
2016-Apr-29 11:33N 49°36' W 000°22'1817.5
2016-Apr-29 10:33N 49°52' W 000°33'1717.4
2016-Apr-29 09:33N 50°08' W 000°44'2019.9
2016-Apr-29 08:32N 50°28' W 000°52'1818.8
2016-Apr-29 07:33N 50°44' W 001°05'4 4.5
2016-Apr-29 06:33N 50°49' W 001°06'0 0.0
2016-Apr-29 05:33N 50°49' W 001°06'9 8.9
2016-Apr-29 04:34N 50°41' W 001°00'2913.8
2016-Apr-29 02:28N 50°14' W 000°43'1010.5
2016-Apr-29 01:33N 50°05' W 000°38'1110.6
2016-Apr-29 00:33N 49°55' W 000°33'1110.8
2016-Apr-28 23:33N 49°45' W 000°27'1111.1
2016-Apr-28 22:34N 49°34' W 000°22'1111.2
2016-Apr-28 21:33N 49°24' W 000°15'6 6.4
2016-Apr-28 20:33N 49°17' W 000°15'0 0.0
2016-Apr-28 19:33N 49°17' W 000°15'1413.7
2016-Apr-28 18:34N 49°31' W 000°20'2120.7
2016-Apr-28 17:34N 49°50' W 000°32'1818.4
2016-Apr-28 16:34N 50°07' W 000°43'2318.9
2016-Apr-28 15:20N 50°29' W 000°53'1418.6
2016-Apr-28 14:34N 50°42' W 001°02'7 6.9
2016-Apr-28 13:33N 50°49' W 001°06'0 0.0
2016-Apr-28 12:33N 50°49' W 001°06'6 6.5
2016-Apr-28 11:33N 50°43' W 001°01'1818.0
2016-Apr-28 10:33N 50°26' W 000°51'1919.4
2016-Apr-28 09:33N 50°07' W 000°44'1919.2
2016-Apr-28 08:33N 49°49' W 000°33'1918.5
2016-Apr-28 07:33N 49°32' W 000°22'1615.7
2016-Apr-28 06:33N 49°17' W 000°15'0 0.0
2016-Apr-28 05:33N 49°17' W 000°15'0 0.1
2016-Apr-28 04:33N 49°17' W 000°15'1313.5
2016-Apr-28 03:33N 49°30' W 000°20'1312.5
2016-Apr-28 02:33N 49°42' W 000°25'1312.6
2016-Apr-28 01:33N 49°54' W 000°32'1312.9
2016-Apr-28 00:33N 50°06' W 000°41'2713.6
2016-Apr-27 22:34N 50°31' W 000°55'1313.2
2016-Apr-27 21:34N 50°44' W 001°03'5 5.4
2016-Apr-27 20:34N 50°49' W 001°06'0 0.0
2016-Apr-27 19:34N 50°49' W 001°06'0 0.0
2016-Apr-27 18:34N 50°49' W 001°06'4 3.6
2016-Apr-27 17:34N 50°45' W 001°05'1818.2
2016-Apr-27 16:34N 50°29' W 000°52'1817.7
2016-Apr-27 15:34N 50°12' W 000°44'1616.1
2016-Apr-27 14:33N 49°57' W 000°35'1716.7
2016-Apr-27 13:34N 49°41' W 000°27'1616.1
2016-Apr-27 12:34N 49°26' W 000°18'9 9.0
2016-Apr-27 11:33N 49°17' W 000°15'0 0.0
2016-Apr-27 10:33N 49°17' W 000°15'0 0.0
2016-Apr-27 09:33N 49°17' W 000°15'0 0.0
2016-Apr-27 08:33N 49°17' W 000°15'0 0.0
2016-Apr-27 07:33N 49°17' W 000°15'0 0.0
2016-Apr-27 06:33N 49°17' W 000°15'0 0.0
2016-Apr-27 05:33N 49°17' W 000°15'10 9.8
2016-Apr-27 04:33N 49°27' W 000°18'1312.7
2016-Apr-27 03:34N 49°39' W 000°24'1110.8
2016-Apr-27 02:34N 49°49' W 000°29'1111.3
2016-Apr-27 01:33N 50°00' W 000°34'1211.6
2016-Apr-27 00:34N 50°11' W 000°40'1616.4
2016-Apr-26 23:34N 50°27' W 000°48'1716.7
2016-Apr-26 22:34N 50°42' W 000°58'8 8.1
2016-Apr-26 21:33N 50°49' W 001°06'0 0.0
2016-Apr-26 20:33N 50°49' W 001°06'4 3.8
2016-Apr-26 19:34N 50°45' W 001°05'1918.6
2016-Apr-26 18:33N 50°28' W 000°53'1919.1
2016-Apr-26 17:34N 50°10' W 000°43'1918.9
2016-Apr-26 16:33N 49°52' W 000°32'1918.9
2016-Apr-26 15:33N 49°35' W 000°22'1817.9
2016-Apr-26 14:33N 49°17' W 000°15'0 0.0
2016-Apr-26 13:33N 49°17' W 000°15'2 1.8
2016-Apr-26 12:34N 49°19' W 000°15'2120.5
2016-Apr-26 11:33N 49°39' W 000°23'2019.6
2016-Apr-26 10:33N 49°58' W 000°31'2520.4
2016-Apr-26 09:19N 50°21' W 000°46'1621.5
2016-Apr-26 08:33N 50°36' W 000°55'1414.1
2016-Apr-26 07:33N 50°49' W 001°07'0 0.4
2016-Apr-26 06:33N 50°49' W 001°06'2 1.5
2016-Apr-26 05:34N 50°47' W 001°06'1313.0
2016-Apr-26 04:34N 50°35' W 001°02'9 9.5
2016-Apr-26 03:33N 50°27' W 001°11'9 0.4
2016-Apr-25 01:33N 50°18' W 001°15'1312.7
2016-Apr-25 00:33N 50°29' W 001°07'1211.6
2016-Apr-24 23:33N 50°40' W 000°60'9 9.5
2016-Apr-24 22:33N 50°49' W 001°06'0 0.1
2016-Apr-24 21:33N 50°49' W 001°06'0 0.0
2016-Apr-24 20:33N 50°49' W 001°06'5 5.0
2016-Apr-24 19:34N 50°44' W 001°03'1918.9
2016-Apr-24 18:33N 50°27' W 000°50'2020.3
2016-Apr-24 17:33N 50°08' W 000°38'1919.3
2016-Apr-24 16:34N 49°50' W 000°29'2019.7
2016-Apr-24 15:34N 49°31' W 000°20'1414.0
2016-Apr-24 14:33N 49°17' W 000°15'0 0.0
2016-Apr-24 13:33N 49°17' W 000°15'2 1.9
2016-Apr-24 12:33N 49°19' W 000°15'1919.0
2016-Apr-24 11:33N 49°37' W 000°25'1919.4
2016-Apr-24 10:33N 49°55' W 000°34'2419.6
2016-Apr-24 09:19N 50°18' W 000°47'1520.2
2016-Apr-24 08:33N 50°33' W 000°52'1717.0
2016-Apr-24 07:33N 50°48' W 001°07'1 1.2
2016-Apr-24 06:33N 50°49' W 001°06'1 0.9
2016-Apr-24 05:34N 50°48' W 001°07'1312.9
2016-Apr-24 04:33N 50°37' W 000°58'1612.2
2016-Apr-24 03:16N 50°22' W 000°50'810.7
2016-Apr-24 02:33N 50°15' W 000°45'1111.3
2016-Apr-24 01:33N 50°04' W 000°39'1212.0
2016-Apr-24 00:34N 49°53' W 000°32'1211.8
2016-Apr-23 23:33N 49°42' W 000°25'1111.4
2016-Apr-23 22:33N 49°31' W 000°20'1111.4
2016-Apr-23 21:33N 49°20' W 000°14'3 3.1
2016-Apr-23 20:33N 49°17' W 000°15'0 0.0
2016-Apr-23 19:33N 49°17' W 000°15'1111.4
2016-Apr-23 18:33N 49°29' W 000°17'2020.0
2016-Apr-23 17:33N 49°47' W 000°28'1918.8
2016-Apr-23 16:33N 50°05' W 000°39'2518.8
2016-Apr-23 15:14N 50°28' W 000°53'1319.4
2016-Apr-23 14:33N 50°40' W 000°60'9 9.1
2016-Apr-23 13:33N 50°49' W 001°06'0 0.0
2016-Apr-23 12:33N 50°49' W 001°06'6 6.0
2016-Apr-23 11:33N 50°43' W 001°02'1918.5
2016-Apr-23 10:31N 50°25' W 000°50'1919.8
2016-Apr-23 09:33N 50°08' W 000°40'1919.1
2016-Apr-23 08:33N 49°50' W 000°30'1918.9
2016-Apr-23 07:33N 49°32' W 000°21'1514.9
2016-Apr-23 06:33N 49°17' W 000°15'0 0.0
2016-Apr-23 05:33N 49°17' W 000°15'0 0.1
2016-Apr-23 04:33N 49°17' W 000°15'1414.0
2016-Apr-23 03:33N 49°31' W 000°21'1717.2
2016-Apr-23 02:33N 49°47' W 000°31'1616.1
2016-Apr-23 01:33N 50°02' W 000°39'3115.4
2016-Apr-22 23:33N 50°31' W 000°56'1313.3
2016-Apr-22 22:33N 50°43' W 001°02'6 5.8
2016-Apr-22 21:33N 50°49' W 001°06'0 0.0
2016-Apr-22 20:33N 50°49' W 001°06'6 5.8
2016-Apr-22 19:34N 50°43' W 001°02'1918.6
2016-Apr-22 18:32N 50°26' W 000°52'1919.6
2016-Apr-22 17:33N 50°06' W 000°46'1717.7
2016-Apr-22 16:34N 49°51' W 000°34'1717.3
2016-Apr-22 15:34N 49°35' W 000°23'1818.0
2016-Apr-22 14:33N 49°18' W 000°15'0 0.5
2016-Apr-22 13:33N 49°17' W 000°15'2 1.9
2016-Apr-22 12:34N 49°19' W 000°15'2020.0
2016-Apr-22 11:34N 49°38' W 000°25'1919.1
2016-Apr-22 10:34N 49°56' W 000°35'2919.6
2016-Apr-22 09:05N 50°23' W 000°49'1120.6
2016-Apr-22 08:33N 50°34' W 000°56'1616.4
2016-Apr-22 07:33N 50°48' W 001°07'1 0.8
2016-Apr-22 06:34N 50°49' W 001°06'0 0.3
2016-Apr-22 05:34N 50°49' W 001°06'1413.6
2016-Apr-22 04:33N 50°36' W 000°57'1211.6
2016-Apr-22 03:33N 50°25' W 000°53'10 9.9
2016-Apr-22 02:31N 50°15' W 000°48'1010.8
2016-Apr-22 01:33N 50°06' W 000°42'1211.8
2016-Apr-22 00:33N 49°55' W 000°35'1211.9
2016-Apr-21 23:33N 49°44' W 000°28'1211.6
2016-Apr-21 22:33N 49°33' W 000°20'1111.0
2016-Apr-21 21:33N 49°23' W 000°15'5 5.4
2016-Apr-21 20:33N 49°17' W 000°15'0 0.0
2016-Apr-21 19:33N 49°17' W 000°15'1111.0
2016-Apr-21 18:34N 49°28' W 000°19'2019.8
2016-Apr-21 17:34N 49°47' W 000°28'1919.2
2016-Apr-21 16:34N 50°05' W 000°39'1918.6
2016-Apr-21 15:34N 50°22' W 000°50'1818.5
2016-Apr-21 14:34N 50°40' W 000°59'1010.0
2016-Apr-21 13:33N 50°49' W 001°06'0 0.0
2016-Apr-21 12:33N 50°49' W 001°06'4 4.2
2016-Apr-21 11:34N 50°45' W 001°05'1918.9
2016-Apr-21 10:34N 50°28' W 000°51'1918.5
2016-Apr-21 09:33N 50°11' W 000°40'2020.0
2016-Apr-21 08:33N 49°51' W 000°32'2019.8
2016-Apr-21 07:33N 49°33' W 000°20'1616.1
2016-Apr-21 06:33N 49°17' W 000°15'0 0.0
2016-Apr-21 05:33N 49°17' W 000°15'0 0.1
2016-Apr-21 04:33N 49°17' W 000°15'1212.5
2016-Apr-21 03:33N 49°29' W 000°21'1313.3
2016-Apr-21 02:33N 49°41' W 000°30'1313.1
2016-Apr-21 01:33N 49°52' W 000°40'1313.5
2016-Apr-21 00:33N 50°05' W 000°46'1414.2
2016-Apr-20 23:33N 50°20' W 000°48'1414.4
2016-Apr-20 22:33N 50°33' W 000°55'1413.8
2016-Apr-20 21:34N 50°45' W 001°05'3 3.3
2016-Apr-20 20:34N 50°49' W 001°06'0 0.0
2016-Apr-20 19:34N 50°49' W 001°06'0 0.0
2016-Apr-20 18:33N 50°49' W 001°06'5 5.2
2016-Apr-20 17:33N 50°44' W 001°03'1817.8
2016-Apr-20 16:34N 50°27' W 000°53'1817.7
2016-Apr-20 15:34N 50°10' W 000°44'1817.8
2016-Apr-20 14:34N 49°54' W 000°34'1818.1
2016-Apr-20 13:34N 49°37' W 000°23'1817.9
2016-Apr-20 12:34N 49°20' W 000°14'3 2.9
2016-Apr-20 11:33N 49°17' W 000°15'0 0.0
2016-Apr-20 10:33N 49°17' W 000°15'0 0.0
2016-Apr-20 09:33N 49°17' W 000°15'0 0.0
2016-Apr-20 08:33N 49°17' W 000°15'0 0.0
2016-Apr-20 07:33N 49°17' W 000°15'0 0.0
2016-Apr-20 06:33N 49°17' W 000°15'0 0.0
2016-Apr-20 05:33N 49°17' W 000°15'9 8.7
2016-Apr-20 04:33N 49°26' W 000°17'1514.7
2016-Apr-20 03:34N 49°39' W 000°26'1514.5
2016-Apr-20 02:33N 49°53' W 000°34'1413.7
2016-Apr-20 01:33N 50°06' W 000°43'1413.9
2016-Apr-20 00:33N 50°19' W 000°52'1514.9
2016-Apr-19 23:33N 50°33' W 000°57'1514.6
2016-Apr-19 22:33N 50°46' W 001°06'  
Track history (hours):
 
Tides and Currents Weather Stations Pressure Air Temp Water Temp Dewpoint Dewpoint Depression Visibility Wind Speed Wind Dir Waves Ship Positions

Mont Saint Michel

Last reported at 2016-Apr-29 21:34 UTC. Time now 2016-Apr-29 21:38 UTC.
Position N 50°49' W 001°06'.

Length 173 m; beam 29 m.

Type: Ship. MMSI: 227023100.

Date/timePositionNaut miles runAvg speedWind from/ knotsBaromVisibWave heightAir tempDewpointWater temp
2016-Apr-29 21:34N 50°49' W 001°06'0 0.0
2016-Apr-29 20:33N 50°49' W 001°06'5 5.0
2016-Apr-29 19:33N 50°44' W 001°03'3718.7
2016-Apr-29 17:33N 50°09' W 000°41'1919.4
2016-Apr-29 16:33N 49°51' W 000°30'1919.2
2016-Apr-29 15:33N 49°33' W 000°21'1616.0
2016-Apr-29 14:33N 49°17' W 000°15'0 0.0
2016-Apr-29 13:34N 49°17' W 000°15'2 1.6
2016-Apr-29 12:33N 49°19' W 000°15'1817.9
2016-Apr-29 11:33N 49°36' W 000°22'1817.5
2016-Apr-29 10:33N 49°52' W 000°33'1717.4
2016-Apr-29 09:33N 50°08' W 000°44'2019.9
2016-Apr-29 08:32N 50°28' W 000°52'1818.8
2016-Apr-29 07:33N 50°44' W 001°05'4 4.5
2016-Apr-29 06:33N 50°49' W 001°06'0 0.0
2016-Apr-29 05:33N 50°49' W 001°06'9 8.9
2016-Apr-29 04:34N 50°41' W 001°00'2913.8
2016-Apr-29 02:28N 50°14' W 000°43'1010.5
2016-Apr-29 01:33N 50°05' W 000°38'1110.6
2016-Apr-29 00:33N 49°55' W 000°33'1110.8
2016-Apr-28 23:33N 49°45' W 000°27'1111.1
2016-Apr-28 22:34N 49°34' W 000°22'1111.2
2016-Apr-28 21:33N 49°24' W 000°15'6 6.4
2016-Apr-28 20:33N 49°17' W 000°15'0 0.0
2016-Apr-28 19:33N 49°17' W 000°15'1413.7
2016-Apr-28 18:34N 49°31' W 000°20'2120.7
2016-Apr-28 17:34N 49°50' W 000°32'1818.4
2016-Apr-28 16:34N 50°07' W 000°43'2318.9
2016-Apr-28 15:20N 50°29' W 000°53'1418.6
2016-Apr-28 14:34N 50°42' W 001°02'7 6.9
2016-Apr-28 13:33N 50°49' W 001°06'0 0.0
2016-Apr-28 12:33N 50°49' W 001°06'6 6.5
2016-Apr-28 11:33N 50°43' W 001°01'1818.0
2016-Apr-28 10:33N 50°26' W 000°51'1919.4
2016-Apr-28 09:33N 50°07' W 000°44'1919.2
2016-Apr-28 08:33N 49°49' W 000°33'1918.5
2016-Apr-28 07:33N 49°32' W 000°22'1615.7
2016-Apr-28 06:33N 49°17' W 000°15'0 0.0
2016-Apr-28 05:33N 49°17' W 000°15'0 0.1
2016-Apr-28 04:33N 49°17' W 000°15'1313.5
2016-Apr-28 03:33N 49°30' W 000°20'1312.5
2016-Apr-28 02:33N 49°42' W 000°25'1312.6
2016-Apr-28 01:33N 49°54' W 000°32'1312.9
2016-Apr-28 00:33N 50°06' W 000°41'2713.6
2016-Apr-27 22:34N 50°31' W 000°55'1313.2
2016-Apr-27 21:34N 50°44' W 001°03'5 5.4
2016-Apr-27 20:34N 50°49' W 001°06'0 0.0
2016-Apr-27 19:34N 50°49' W 001°06'0 0.0
2016-Apr-27 18:34N 50°49' W 001°06'4 3.6
2016-Apr-27 17:34N 50°45' W 001°05'1818.2
2016-Apr-27 16:34N 50°29' W 000°52'1817.7
2016-Apr-27 15:34N 50°12' W 000°44'1616.1
2016-Apr-27 14:33N 49°57' W 000°35'1716.7
2016-Apr-27 13:34N 49°41' W 000°27'1616.1
2016-Apr-27 12:34N 49°26' W 000°18'9 9.0
2016-Apr-27 11:33N 49°17' W 000°15'0 0.0
2016-Apr-27 10:33N 49°17' W 000°15'0 0.0
2016-Apr-27 09:33N 49°17' W 000°15'0 0.0
2016-Apr-27 08:33N 49°17' W 000°15'0 0.0
2016-Apr-27 07:33N 49°17' W 000°15'0 0.0
2016-Apr-27 06:33N 49°17' W 000°15'0 0.0
2016-Apr-27 05:33N 49°17' W 000°15'10 9.8
2016-Apr-27 04:33N 49°27' W 000°18'1312.7
2016-Apr-27 03:34N 49°39' W 000°24'1110.8
2016-Apr-27 02:34N 49°49' W 000°29'1111.3
2016-Apr-27 01:33N 50°00' W 000°34'1211.6
2016-Apr-27 00:34N 50°11' W 000°40'1616.4
2016-Apr-26 23:34N 50°27' W 000°48'1716.7
2016-Apr-26 22:34N 50°42' W 000°58'8 8.1
2016-Apr-26 21:33N 50°49' W 001°06'0 0.0
2016-Apr-26 20:33N 50°49' W 001°06'4 3.8
2016-Apr-26 19:34N 50°45' W 001°05'1918.6
2016-Apr-26 18:33N 50°28' W 000°53'1919.1
2016-Apr-26 17:34N 50°10' W 000°43'1918.9
2016-Apr-26 16:33N 49°52' W 000°32'1918.9
2016-Apr-26 15:33N 49°35' W 000°22'1817.9
2016-Apr-26 14:33N 49°17' W 000°15'0 0.0
2016-Apr-26 13:33N 49°17' W 000°15'2 1.8
2016-Apr-26 12:34N 49°19' W 000°15'2120.5
2016-Apr-26 11:33N 49°39' W 000°23'2019.6
2016-Apr-26 10:33N 49°58' W 000°31'2520.4
2016-Apr-26 09:19N 50°21' W 000°46'1621.5
2016-Apr-26 08:33N 50°36' W 000°55'1414.1
2016-Apr-26 07:33N 50°49' W 001°07'0 0.4
2016-Apr-26 06:33N 50°49' W 001°06'2 1.5
2016-Apr-26 05:34N 50°47' W 001°06'1313.0
2016-Apr-26 04:34N 50°35' W 001°02'9 9.5
2016-Apr-26 03:33N 50°27' W 001°11'9 0.4
2016-Apr-25 01:33N 50°18' W 001°15'1312.7
2016-Apr-25 00:33N 50°29' W 001°07'1211.6
2016-Apr-24 23:33N 50°40' W 000°60'9 9.5
2016-Apr-24 22:33N 50°49' W 001°06'0 0.1
2016-Apr-24 21:33N 50°49' W 001°06'0 0.0
2016-Apr-24 20:33N 50°49' W 001°06'5 5.0
2016-Apr-24 19:34N 50°44' W 001°03'1918.9
2016-Apr-24 18:33N 50°27' W 000°50'2020.3
2016-Apr-24 17:33N 50°08' W 000°38'1919.3
2016-Apr-24 16:34N 49°50' W 000°29'2019.7
2016-Apr-24 15:34N 49°31' W 000°20'1414.0
2016-Apr-24 14:33N 49°17' W 000°15'0 0.0
2016-Apr-24 13:33N 49°17' W 000°15'2 1.9
2016-Apr-24 12:33N 49°19' W 000°15'1919.0
2016-Apr-24 11:33N 49°37' W 000°25'1919.4
2016-Apr-24 10:33N 49°55' W 000°34'2419.6
2016-Apr-24 09:19N 50°18' W 000°47'1520.2
2016-Apr-24 08:33N 50°33' W 000°52'1717.0
2016-Apr-24 07:33N 50°48' W 001°07'1 1.2
2016-Apr-24 06:33N 50°49' W 001°06'1 0.9
2016-Apr-24 05:34N 50°48' W 001°07'1312.9
2016-Apr-24 04:33N 50°37' W 000°58'1612.2
2016-Apr-24 03:16N 50°22' W 000°50'810.7
2016-Apr-24 02:33N 50°15' W 000°45'1111.3
2016-Apr-24 01:33N 50°04' W 000°39'1212.0
2016-Apr-24 00:34N 49°53' W 000°32'1211.8
2016-Apr-23 23:33N 49°42' W 000°25'1111.4
2016-Apr-23 22:33N 49°31' W 000°20'1111.4
2016-Apr-23 21:33N 49°20' W 000°14'3 3.1
2016-Apr-23 20:33N 49°17' W 000°15'0 0.0
2016-Apr-23 19:33N 49°17' W 000°15'1111.4
2016-Apr-23 18:33N 49°29' W 000°17'2020.0
2016-Apr-23 17:33N 49°47' W 000°28'1918.8
2016-Apr-23 16:33N 50°05' W 000°39'2518.8
2016-Apr-23 15:14N 50°28' W 000°53'1319.4
2016-Apr-23 14:33N 50°40' W 000°60'9 9.1
2016-Apr-23 13:33N 50°49' W 001°06'0 0.0
2016-Apr-23 12:33N 50°49' W 001°06'6 6.0
2016-Apr-23 11:33N 50°43' W 001°02'1918.5
2016-Apr-23 10:31N 50°25' W 000°50'1919.8
2016-Apr-23 09:33N 50°08' W 000°40'1919.1
2016-Apr-23 08:33N 49°50' W 000°30'1918.9
2016-Apr-23 07:33N 49°32' W 000°21'1514.9
2016-Apr-23 06:33N 49°17' W 000°15'0 0.0
2016-Apr-23 05:33N 49°17' W 000°15'0 0.1
2016-Apr-23 04:33N 49°17' W 000°15'1414.0
2016-Apr-23 03:33N 49°31' W 000°21'1717.2
2016-Apr-23 02:33N 49°47' W 000°31'1616.1
2016-Apr-23 01:33N 50°02' W 000°39'3115.4
2016-Apr-22 23:33N 50°31' W 000°56'1313.3
2016-Apr-22 22:33N 50°43' W 001°02'6 5.8
2016-Apr-22 21:33N 50°49' W 001°06'0 0.0
2016-Apr-22 20:33N 50°49' W 001°06'6 5.8
2016-Apr-22 19:34N 50°43' W 001°02'1918.6
2016-Apr-22 18:32N 50°26' W 000°52'1919.6
2016-Apr-22 17:33N 50°06' W 000°46'1717.7
2016-Apr-22 16:34N 49°51' W 000°34'1717.3
2016-Apr-22 15:34N 49°35' W 000°23'1818.0
2016-Apr-22 14:33N 49°18' W 000°15'0 0.5
2016-Apr-22 13:33N 49°17' W 000°15'2 1.9
2016-Apr-22 12:34N 49°19' W 000°15'2020.0
2016-Apr-22 11:34N 49°38' W 000°25'1919.1
2016-Apr-22 10:34N 49°56' W 000°35'2919.6
2016-Apr-22 09:05N 50°23' W 000°49'1120.6
2016-Apr-22 08:33N 50°34' W 000°56'1616.4
2016-Apr-22 07:33N 50°48' W 001°07'1 0.8
2016-Apr-22 06:34N 50°49' W 001°06'0 0.3
2016-Apr-22 05:34N 50°49' W 001°06'1413.6
2016-Apr-22 04:33N 50°36' W 000°57'1211.6
2016-Apr-22 03:33N 50°25' W 000°53'10 9.9
2016-Apr-22 02:31N 50°15' W 000°48'1010.8
2016-Apr-22 01:33N 50°06' W 000°42'1211.8
2016-Apr-22 00:33N 49°55' W 000°35'1211.9
2016-Apr-21 23:33N 49°44' W 000°28'1211.6
2016-Apr-21 22:33N 49°33' W 000°20'1111.0
2016-Apr-21 21:33N 49°23' W 000°15'5 5.4
2016-Apr-21 20:33N 49°17' W 000°15'0 0.0
2016-Apr-21 19:33N 49°17' W 000°15'1111.0
2016-Apr-21 18:34N 49°28' W 000°19'2019.8
2016-Apr-21 17:34N 49°47' W 000°28'1919.2
2016-Apr-21 16:34N 50°05' W 000°39'1918.6
2016-Apr-21 15:34N 50°22' W 000°50'1818.5
2016-Apr-21 14:34N 50°40' W 000°59'1010.0
2016-Apr-21 13:33N 50°49' W 001°06'0 0.0
2016-Apr-21 12:33N 50°49' W 001°06'4 4.2
2016-Apr-21 11:34N 50°45' W 001°05'1918.9
2016-Apr-21 10:34N 50°28' W 000°51'1918.5
2016-Apr-21 09:33N 50°11' W 000°40'2020.0
2016-Apr-21 08:33N 49°51' W 000°32'2019.8
2016-Apr-21 07:33N 49°33' W 000°20'1616.1
2016-Apr-21 06:33N 49°17' W 000°15'0 0.0
2016-Apr-21 05:33N 49°17' W 000°15'0 0.1
2016-Apr-21 04:33N 49°17' W 000°15'1212.5
2016-Apr-21 03:33N 49°29' W 000°21'1313.3
2016-Apr-21 02:33N 49°41' W 000°30'1313.1
2016-Apr-21 01:33N 49°52' W 000°40'1313.5
2016-Apr-21 00:33N 50°05' W 000°46'1414.2
2016-Apr-20 23:33N 50°20' W 000°48'1414.4
2016-Apr-20 22:33N 50°33' W 000°55'1413.8
2016-Apr-20 21:34N 50°45' W 001°05'3 3.3
2016-Apr-20 20:34N 50°49' W 001°06'0 0.0
2016-Apr-20 19:34N 50°49' W 001°06'0 0.0
2016-Apr-20 18:33N 50°49' W 001°06'5 5.2
2016-Apr-20 17:33N 50°44' W 001°03'1817.8
2016-Apr-20 16:34N 50°27' W 000°53'1817.7
2016-Apr-20 15:34N 50°10' W 000°44'1817.8
2016-Apr-20 14:34N 49°54' W 000°34'1818.1
2016-Apr-20 13:34N 49°37' W 000°23'1817.9
2016-Apr-20 12:34N 49°20' W 000°14'3 2.9
2016-Apr-20 11:33N 49°17' W 000°15'0 0.0
2016-Apr-20 10:33N 49°17' W 000°15'0 0.0
2016-Apr-20 09:33N 49°17' W 000°15'0 0.0
2016-Apr-20 08:33N 49°17' W 000°15'0 0.0
2016-Apr-20 07:33N 49°17' W 000°15'0 0.0
2016-Apr-20 06:33N 49°17' W 000°15'0 0.0
2016-Apr-20 05:33N 49°17' W 000°15'9 8.7
2016-Apr-20 04:33N 49°26' W 000°17'1514.7
2016-Apr-20 03:34N 49°39' W 000°26'1514.5
2016-Apr-20 02:33N 49°53' W 000°34'1413.7
2016-Apr-20 01:33N 50°06' W 000°43'1413.9
2016-Apr-20 00:33N 50°19' W 000°52'1514.9
2016-Apr-19 23:33N 50°33' W 000°57'1514.6
2016-Apr-19 22:33N 50°46' W 001°06'  

Dump ship's entire track history